createdAt,value
2019-05-15T00:03:50.201Z,8.06
2019-05-15T00:08:44.160Z,8.09
2019-05-15T00:13:38.852Z,8.10
2019-05-15T00:18:33.205Z,8.14
2019-05-15T00:23:29.193Z,8.14
2019-05-15T00:28:23.097Z,8.06
2019-05-15T00:33:19.169Z,8.03
2019-05-15T00:38:12.926Z,8.01
2019-05-15T00:43:08.797Z,7.83
2019-05-15T00:48:02.977Z,7.83
2019-05-15T00:52:58.964Z,7.72
2019-05-15T00:57:52.914Z,7.66
2019-05-15T01:02:48.697Z,7.54
2019-05-15T01:07:42.749Z,7.52
2019-05-15T01:12:38.015Z,7.54
2019-05-15T01:17:32.075Z,7.50
2019-05-15T01:22:28.505Z,7.49
2019-05-15T01:27:22.028Z,7.42
2019-05-15T01:32:15.960Z,7.36
2019-05-15T01:37:09.927Z,7.27
2019-05-15T01:42:03.881Z,7.30
2019-05-15T01:46:59.010Z,7.21
2019-05-15T01:51:53.216Z,7.18
2019-05-15T01:56:49.668Z,7.19
2019-05-15T02:01:43.744Z,7.19
2019-05-15T02:06:39.094Z,7.17
2019-05-15T02:11:33.280Z,7.15
2019-05-15T02:16:28.665Z,7.06
2019-05-15T02:21:22.878Z,7.00
2019-05-15T02:26:18.933Z,6.99
2019-05-15T02:31:12.773Z,6.90
2019-05-15T02:36:09.711Z,6.74
2019-05-15T02:41:02.750Z,6.70
2019-05-15T02:46:00.078Z,6.71
2019-05-15T02:50:52.690Z,6.76
2019-05-15T02:55:49.451Z,6.65
2019-05-15T03:00:52.292Z,6.59
2019-05-15T03:05:42.616Z,6.47
2019-05-15T03:10:39.973Z,6.34
2019-05-15T03:15:33.128Z,6.33
2019-05-15T03:20:29.825Z,6.31
2019-05-15T03:25:23.084Z,6.23
2019-05-15T03:30:21.728Z,6.24
2019-05-15T03:35:15.873Z,6.18
2019-05-15T03:40:11.082Z,6.02
2019-05-15T03:45:05.128Z,5.96
2019-05-15T03:50:02.952Z,6.01
2019-05-15T03:54:58.805Z,6.02
2019-05-15T03:59:52.800Z,6.06
2019-05-15T04:04:49.989Z,6.11
2019-05-15T04:09:42.830Z,6.12
2019-05-15T04:14:39.440Z,6.16
2019-05-15T04:19:32.988Z,6.21
2019-05-15T04:24:30.089Z,6.26
2019-05-15T04:29:28.747Z,6.37
2019-05-15T04:34:23.742Z,6.45
2019-05-15T04:39:19.317Z,6.59
2019-05-15T04:44:13.567Z,6.68
2019-05-15T04:49:09.271Z,6.78
2019-05-15T04:54:03.499Z,6.89
2019-05-15T04:58:59.980Z,7.06
2019-05-15T05:03:53.366Z,7.21
2019-05-15T05:08:49.077Z,7.42
2019-05-15T05:13:43.319Z,7.60
2019-05-15T05:18:41.215Z,7.88
2019-05-15T05:23:33.235Z,8.04
2019-05-15T05:28:29.014Z,8.19
2019-05-15T05:33:23.460Z,8.30
2019-05-15T05:38:19.135Z,8.39
2019-05-15T05:43:13.488Z,8.65
2019-05-15T05:48:08.803Z,8.75
2019-05-15T05:53:04.821Z,8.92
2019-05-15T05:57:58.781Z,9.01
2019-05-15T06:02:52.932Z,9.37
2019-05-15T06:07:48.771Z,9.37
2019-05-15T06:12:42.813Z,9.57
2019-05-15T06:17:39.316Z,9.71
2019-05-15T06:22:32.672Z,10.06
2019-05-15T06:27:27.992Z,10.39
2019-05-15T06:32:22.125Z,10.63
2019-05-15T06:37:16.088Z,10.87
2019-05-15T06:42:10.072Z,11.03
2019-05-15T06:47:04.178Z,11.15
2019-05-15T06:51:58.291Z,11.25
2019-05-15T06:56:52.370Z,11.38
2019-05-15T07:01:48.093Z,11.40
2019-05-15T07:06:42.258Z,11.49
2019-05-15T07:11:38.637Z,11.61
2019-05-15T07:16:32.366Z,11.76
2019-05-15T07:21:28.516Z,11.76
2019-05-15T07:26:22.427Z,11.93
2019-05-15T07:31:18.061Z,11.93
2019-05-15T07:36:12.389Z,12.06
2019-05-15T07:41:09.745Z,12.31
2019-05-15T07:46:02.516Z,12.51
2019-05-15T07:50:56.492Z,12.60
2019-05-15T07:55:52.375Z,12.63
2019-05-15T08:00:49.075Z,12.85
2019-05-15T08:05:54.947Z,12.86
2019-05-15T08:10:39.692Z,12.85
2019-05-15T08:15:33.790Z,12.98
2019-05-15T08:20:28.909Z,12.91
2019-05-15T08:25:32.404Z,13.10
2019-05-15T08:30:19.311Z,13.17
2019-05-15T08:35:13.879Z,13.24
2019-05-15T08:40:08.723Z,13.34
2019-05-15T08:45:06.126Z,13.48
2019-05-15T08:50:00.206Z,13.51
2019-05-15T08:54:54.281Z,13.61
2019-05-15T08:59:48.845Z,13.87
2019-05-15T09:04:42.954Z,14.14
2019-05-15T09:09:38.322Z,14.25
2019-05-15T09:14:32.472Z,14.40
2019-05-15T09:19:28.054Z,14.47
2019-05-15T09:24:28.780Z,14.57
2019-05-15T09:29:23.100Z,14.59
2019-05-15T09:34:18.521Z,14.80
2019-05-15T09:39:13.569Z,14.97
2019-05-15T09:44:08.063Z,15.27
2019-05-15T09:49:02.270Z,15.63
2019-05-15T09:53:59.419Z,15.73
2019-05-15T09:58:52.293Z,15.91
2019-05-15T10:03:48.479Z,16.21
2019-05-15T10:08:42.148Z,16.34
2019-05-15T10:13:38.336Z,16.51
2019-05-15T10:18:32.153Z,16.87
2019-05-15T10:23:28.869Z,17.22
2019-05-15T10:28:22.114Z,17.89
2019-05-15T10:33:19.254Z,18.85
2019-05-15T10:38:12.264Z,20.01
2019-05-15T10:43:09.163Z,20.56
2019-05-15T10:48:04.297Z,21.53
2019-05-15T10:53:01.083Z,22.23
2019-05-15T10:57:55.129Z,22.87
2019-05-15T11:02:51.047Z,23.18
2019-05-15T11:07:45.141Z,23.73
2019-05-15T11:12:39.324Z,24.30
2019-05-15T11:17:33.490Z,25.19
2019-05-15T11:22:29.849Z,26.17
2019-05-15T11:27:23.448Z,27.24
2019-05-15T11:32:19.985Z,27.56
2019-05-15T11:37:14.207Z,27.88
2019-05-15T11:42:08.868Z,27.37
2019-05-15T11:47:06.111Z,28.07
2019-05-15T11:52:00.798Z,29.64
2019-05-15T11:56:54.870Z,31.43
2019-05-15T12:01:49.075Z,32.58
2019-05-15T12:06:57.974Z,35.45
2019-05-15T12:11:41.113Z,36.09
2019-05-15T12:16:36.359Z,34.42
2019-05-15T12:21:30.983Z,31.87
2019-05-15T12:26:24.956Z,31.76
2019-05-15T12:31:24.362Z,31.87
2019-05-15T12:36:40.977Z,32.94
2019-05-15T13:00:57.888Z,37.07
2019-05-15T13:05:52.181Z,38.70
2019-05-15T13:10:48.635Z,40.21
2019-05-15T13:15:45.363Z,39.26
2019-05-15T13:20:41.361Z,41.74
2019-05-15T13:25:35.487Z,40.27
2019-05-15T13:30:30.183Z,40.11
2019-05-15T13:35:24.270Z,35.55
2019-05-15T13:40:18.844Z,29.21
2019-05-15T13:45:13.689Z,27.36
2019-05-15T13:50:08.858Z,26.72
2019-05-15T13:55:04.561Z,27.16
2019-05-15T14:00:01.902Z,27.64
2019-05-15T14:04:58.148Z,26.93
2019-05-15T14:09:51.840Z,27.59
2019-05-15T14:14:45.850Z,28.00
2019-05-15T14:19:39.865Z,28.07
2019-05-15T14:24:33.874Z,28.73
2019-05-15T14:29:30.431Z,27.97
2019-05-15T14:34:24.383Z,28.34
2019-05-15T14:39:21.064Z,28.43
2019-05-15T14:44:18.651Z,28.65
2019-05-15T14:49:11.131Z,29.75
2019-05-15T14:54:05.109Z,30.13
2019-05-15T14:58:59.189Z,31.58
2019-05-15T15:03:53.166Z,35.69
2019-05-15T15:08:48.736Z,40.10
2019-05-15T15:13:43.078Z,41.79
2019-05-15T15:18:38.593Z,41.28
2019-05-15T15:23:32.925Z,41.88
2019-05-15T15:28:29.547Z,42.01
2019-05-15T15:33:23.539Z,41.31
2019-05-15T15:38:33.254Z,40.19
2019-05-15T15:43:15.321Z,40.42
2019-05-15T15:48:09.323Z,39.66
2019-05-15T15:53:03.489Z,39.34
2019-05-15T15:57:59.228Z,38.69
2019-05-15T16:02:53.506Z,38.16
2019-05-15T16:07:48.542Z,37.90
2019-05-15T16:12:42.813Z,36.62
2019-05-15T16:17:38.438Z,36.81
2019-05-15T16:22:32.939Z,35.07
2019-05-15T16:27:28.705Z,36.54
2019-05-15T16:32:22.836Z,35.31
2019-05-15T16:37:18.774Z,35.10
2019-05-15T16:42:12.821Z,30.28
2019-05-15T16:47:08.480Z,25.95
2019-05-15T16:52:02.734Z,23.82
2019-05-15T16:56:58.829Z,22.70
2019-05-15T17:01:52.850Z,21.53
2019-05-15T17:06:49.172Z,20.92
2019-05-15T17:11:42.811Z,20.65
2019-05-15T17:16:38.703Z,20.33
2019-05-15T17:21:33.120Z,19.59
2019-05-15T17:26:28.806Z,18.77
2019-05-15T17:31:23.005Z,18.48
2019-05-15T17:36:18.561Z,18.13
2019-05-15T17:41:12.888Z,17.86
2019-05-15T17:46:08.854Z,17.47
2019-05-15T17:51:06.027Z,17.34
2019-05-15T17:56:01.299Z,17.06
2019-05-15T18:00:55.476Z,16.89
2019-05-15T18:05:49.669Z,16.79
2019-05-15T18:10:44.198Z,16.58
2019-05-15T18:15:38.817Z,16.43
2019-05-15T18:20:32.961Z,16.26
2019-05-15T18:25:27.016Z,16.06
2019-05-15T18:30:23.224Z,15.92
2019-05-15T18:35:18.782Z,15.64
2019-05-15T18:40:15.901Z,15.49
2019-05-15T18:45:09.952Z,15.35
2019-05-15T18:50:08.750Z,15.21
2019-05-15T18:55:01.458Z,15.00
2019-05-15T18:59:57.896Z,14.86
2019-05-15T19:04:51.673Z,14.75
2019-05-15T19:09:47.893Z,14.57
2019-05-15T19:14:41.719Z,14.43
2019-05-15T19:19:35.811Z,14.34
2019-05-15T19:24:29.810Z,14.17
2019-05-15T19:29:23.854Z,13.98
2019-05-15T19:34:19.004Z,13.75
2019-05-15T19:39:13.095Z,13.50
2019-05-15T19:44:08.746Z,13.52
2019-05-15T19:49:03.207Z,13.24
2019-05-15T19:53:58.647Z,13.06
2019-05-15T19:58:52.916Z,12.95
2019-05-15T20:03:50.676Z,12.78
2019-05-15T20:08:43.509Z,12.59
2019-05-15T20:13:38.394Z,12.46
2019-05-15T20:18:32.658Z,12.28
2019-05-15T20:23:28.731Z,12.14
2019-05-15T20:28:22.728Z,12.09
2019-05-15T20:33:17.986Z,12.01
2019-05-15T20:38:12.240Z,11.98
2019-05-15T20:43:08.212Z,11.82
2019-05-15T20:48:02.239Z,11.75
2019-05-15T20:52:58.761Z,11.81
2019-05-15T20:57:52.292Z,11.60
2019-05-15T21:02:48.508Z,11.46
2019-05-15T21:07:43.439Z,11.36
2019-05-15T21:12:40.525Z,11.23
2019-05-15T21:17:33.459Z,11.14
2019-05-15T21:22:28.436Z,10.98
2019-05-15T21:27:24.327Z,10.83
2019-05-15T21:32:19.642Z,10.75
2019-05-15T21:37:13.931Z,10.69
2019-05-15T21:42:09.169Z,10.66
2019-05-15T21:47:03.401Z,10.72
2019-05-15T21:51:59.271Z,10.74
2019-05-15T21:57:06.791Z,10.78
2019-05-15T22:01:49.358Z,10.90
2019-05-15T22:06:43.318Z,11.05
2019-05-15T22:11:39.547Z,11.04
2019-05-15T22:16:33.256Z,11.05
2019-05-15T22:21:27.267Z,11.15
2019-05-15T22:26:21.688Z,11.09
2019-05-15T22:31:15.964Z,11.04
2019-05-15T22:36:12.373Z,10.86
2019-05-15T22:41:10.147Z,10.90
2019-05-15T22:46:02.743Z,10.69
2019-05-15T22:50:58.322Z,10.63
2019-05-15T22:55:52.573Z,10.71
2019-05-15T23:00:48.956Z,10.57
2019-05-15T23:05:42.568Z,10.58
2019-05-15T23:10:38.433Z,10.49
2019-05-15T23:15:32.486Z,10.55
2019-05-15T23:20:28.632Z,10.47
2019-05-15T23:25:22.324Z,10.29
2019-05-15T23:30:18.701Z,10.17
2019-05-15T23:35:13.306Z,9.95
2019-05-15T23:40:08.853Z,9.85
2019-05-15T23:45:04.933Z,9.83
2019-05-15T23:50:00.928Z,9.57
2019-05-15T23:54:54.888Z,9.43
2019-05-15T23:59:50.182Z,9.30
